Time;durP1;ratioP1;P1;durP2;ratioP2;P2;SDS_P1;SDS_P2;PMS_P1;PMS_P2;Temp;Humidity;BMP_temperature;BMP_pressure;BME280_temperature;BME280_humidity;BME280_pressure;Samples;Min_cycle;Max_cycle;Signal;HPM_P1;HPM_P2
2022/01/05 00:00:43;;;;;;;;;;;;;;;14.26;53.33;98059.16;4475585;32;34343;-70
2022/01/05 00:03:10;;;;;;;;;;;;;;;14.39;52.83;98045.94;4468896;32;34380;-71
2022/01/05 00:05:38;;;;;;;;;;;;;;;14.16;53.47;98048.63;4472772;32;34365;-70
2022/01/05 00:08:05;;;;;;;;;;;;;;;13.25;56.29;98044.72;4465570;32;34287;-68
2022/01/05 00:10:33;;;;;;;;;;;;;;;12.99;57.30;98047.59;4467668;32;34087;-70
2022/01/05 00:13:00;;;;;;;;;;;;;;;13.18;56.75;98047.22;4469068;32;32897;-68
2022/01/05 00:15:27;;;;;;;;;;;;;;;12.80;58.04;98048.81;4468502;32;34394;-69
2022/01/05 00:17:55;;;;;;;;;;;;;;;13.08;57.04;98051.94;4471471;32;34429;-70
2022/01/05 00:20:23;;;;;;;;;;;;;;;13.14;57.02;98047.75;4466416;32;33704;-71
2022/01/05 00:22:50;;;;;;;;;;;;;;;13.24;56.63;98040.31;4476857;32;34278;-70
2022/01/05 00:25:18;;;;;;;;;;;;;;;13.07;57.19;98031.47;4474730;31;33791;-69
2022/01/05 00:27:45;;;;;;;;;;;;;;;13.24;56.55;98026.87;4474762;32;33907;-69
2022/01/05 00:30:13;;;;;;;;;;;;;;;13.19;56.79;98023.88;4474995;31;34341;-70
2022/01/05 00:32:40;;;;;;;;;;;;;;;13.23;56.52;98027.91;4471620;32;34584;-71
2022/01/05 00:35:08;;;;;;;;;;;;;;;12.46;59.14;98027.56;4468240;32;33827;-72
2022/01/05 00:37:35;;;;;;;;;;;;;;;12.21;59.71;98024.03;4449391;32;834366;-71
2022/01/05 00:40:03;;;;;;;;;;;;;;;12.33;59.33;98022.69;4479751;32;34437;-69
2022/01/05 00:42:30;;;;;;;;;;;;;;;12.77;58.50;98020.44;4473015;32;33692;-71
2022/01/05 00:44:58;;;;;;;;;;;;;;;13.00;57.45;98014.34;4468976;32;33726;-72
2022/01/05 00:47:26;;;;;;;;;;;;;;;12.43;59.18;98028.72;4469689;32;32204;-71
2022/01/05 00:49:53;;;;;;;;;;;;;;;12.08;60.39;98027.19;4471435;32;33919;-71
2022/01/05 00:52:20;;;;;;;;;;;;;;;12.25;60.01;98023.50;4473794;32;36741;-70
2022/01/05 00:54:48;;;;;;;;;;;;;;;12.29;59.88;98024.84;4469365;32;33717;-71
2022/01/05 00:57:15;;;;;;;;;;;;;;;12.52;59.16;98029.53;4471394;32;33905;-70
2022/01/05 00:59:43;;;;;;;;;;;;;;;11.63;61.89;98028.44;4468867;32;33941;-70
2022/01/05 01:02:10;;;;;;;;;;;;;;;12.14;60.54;98028.38;4464944;32;34008;-70
2022/01/05 01:04:38;;;;;;;;;;;;;;;12.14;60.59;98041.78;4471483;32;33140;-70
2022/01/05 01:07:05;;;;;;;;;;;;;;;12.25;60.02;98036.09;4467163;32;34619;-70
2022/01/05 01:09:33;;;;;;;;;;;;;;;12.29;59.86;98043.63;4467737;32;34195;-71
2022/01/05 01:12:01;;;;;;;;;;;;;;;12.39;59.27;98045.31;4469567;32;34643;-69
2022/01/05 01:14:28;;;;;;;;;;;;;;;11.24;63.50;98042.34;4468296;32;34487;-70
2022/01/05 01:16:55;;;;;;;;;;;;;;;11.92;61.02;98036.06;4474775;32;34012;-70
2022/01/05 01:19:23;;;;;;;;;;;;;;;12.55;59.38;98029.19;4473712;32;34407;-70
2022/01/05 01:21:50;;;;;;;;;;;;;;;12.32;59.86;98027.19;4467429;32;34322;-69
2022/01/05 01:24:18;;;;;;;;;;;;;;;12.66;58.87;98020.81;4476675;31;34327;-71
2022/01/05 01:26:45;;;;;;;;;;;;;;;12.93;57.64;98026.81;4468376;32;33984;-70
2022/01/05 01:29:13;;;;;;;;;;;;;;;12.53;58.93;98021.34;4476892;32;34977;-72
2022/01/05 01:31:40;;;;;;;;;;;;;;;12.86;58.27;98005.16;4465477;32;34444;-70
2022/01/05 01:34:07;;;;;;;;;;;;;;;13.15;57.35;98007.25;4465008;32;33559;-71
2022/01/05 01:36:35;;;;;;;;;;;;;;;13.01;57.53;98005.31;4472434;31;35268;-71
2022/01/05 01:39:04;;;;;;;;;;;;;;;13.38;56.55;98011.91;4477295;32;34610;-70
2022/01/05 01:41:32;;;;;;;;;;;;;;;12.82;58.19;98017.28;4469071;31;35563;-72
2022/01/05 01:43:59;;;;;;;;;;;;;;;12.21;60.30;98011.44;4470589;32;33197;-72
2022/01/05 01:46:26;;;;;;;;;;;;;;;12.10;60.54;98006.41;4473189;31;33041;-71
2022/01/05 01:48:54;;;;;;;;;;;;;;;12.24;60.40;98008.44;4475141;32;34157;-70
2022/01/05 01:51:21;;;;;;;;;;;;;;;12.19;60.51;98000.03;4471309;31;35389;-70
2022/01/05 01:53:49;;;;;;;;;;;;;;;12.25;60.35;98003.91;4468267;32;33612;-70
2022/01/05 01:56:16;;;;;;;;;;;;;;;12.08;60.71;97997.69;4467918;32;35266;-69
2022/01/05 01:58:45;;;;;;;;;;;;;;;12.46;59.69;97995.34;4466349;32;34944;-69
2022/01/05 02:01:12;;;;;;;;;;;;;;;11.75;62.07;97999.44;4474006;32;35525;-70
2022/01/05 02:03:40;;;;;;;;;;;;;;;11.92;61.46;98005.72;4468096;32;33539;-70
2022/01/05 02:06:07;;;;;;;;;;;;;;;11.77;61.80;98011.69;4478554;32;34440;-70
2022/01/05 02:08:35;;;;;;;;;;;;;;;12.44;59.65;98000.88;4470762;32;34369;-70
2022/01/05 02:11:03;;;;;;;;;;;;;;;12.30;60.00;98006.94;4470071;32;34916;-69
2022/01/05 02:13:30;;;;;;;;;;;;;;;12.16;60.53;98005.75;4474896;32;33466;-69
2022/01/05 02:15:58;;;;;;;;;;;;;;;12.32;60.03;98004.91;4477899;32;34279;-68
2022/01/05 02:21:00;;;;;;;;;;;;;;;12.09;60.70;98002.06;4466230;32;34526;-67
2022/01/05 02:23:28;;;;;;;;;;;;;;;12.67;58.76;98000.19;4473577;32;33446;-68
2022/01/05 02:25:55;;;;;;;;;;;;;;;12.77;58.33;97998.97;4468530;32;34447;-69
2022/01/05 02:28:23;;;;;;;;;;;;;;;13.02;57.42;97993.53;4477449;32;33362;-68
2022/01/05 02:30:52;;;;;;;;;;;;;;;12.39;59.23;97994.34;4468559;32;35710;-68
2022/01/05 02:33:20;;;;;;;;;;;;;;;12.56;58.39;97988.78;4470025;32;34218;-68
2022/01/05 02:35:47;;;;;;;;;;;;;;;12.20;59.87;97990.16;4477345;31;35293;-69
2022/01/05 02:38:19;;;;;;;;;;;;;;;12.52;59.00;97983.91;4472567;32;34095;-69
2022/01/05 02:40:46;;;;;;;;;;;;;;;12.51;59.13;97977.72;4469417;32;34689;-71
2022/01/05 02:43:14;;;;;;;;;;;;;;;12.59;58.96;97975.03;4471740;32;33802;-67
2022/01/05 02:45:41;;;;;;;;;;;;;;;12.70;58.45;97976.50;4471957;32;34187;-70
2022/01/05 02:48:09;;;;;;;;;;;;;;;13.02;57.48;97978.28;4477465;32;34212;-70
2022/01/05 02:50:36;;;;;;;;;;;;;;;13.25;56.78;97975.69;4468416;32;35353;-70
2022/01/05 02:53:04;;;;;;;;;;;;;;;12.82;57.95;97975.16;4467298;32;33989;-69
2022/01/05 02:55:31;;;;;;;;;;;;;;;12.17;59.56;97977.09;4465280;32;35863;-70
2022/01/05 02:57:59;;;;;;;;;;;;;;;12.72;58.24;97971.81;4469703;32;34191;-71
2022/01/05 03:00:27;;;;;;;;;;;;;;;12.72;58.20;97977.19;4464574;32;34202;-70
2022/01/05 03:02:54;;;;;;;;;;;;;;;13.01;57.21;97976.59;4463742;32;33171;-69
2022/01/05 03:05:22;;;;;;;;;;;;;;;13.20;56.63;97979.91;4471319;32;33935;-69
2022/01/05 03:07:49;;;;;;;;;;;;;;;13.22;56.30;97970.62;4468309;31;33401;-69
2022/01/05 03:10:17;;;;;;;;;;;;;;;13.56;55.27;97969.50;4463159;32;34002;-70
2022/01/05 03:12:44;;;;;;;;;;;;;;;13.79;54.42;97968.69;4467149;32;33083;-69
2022/01/05 03:15:12;;;;;;;;;;;;;;;13.65;54.62;97970.28;4471321;32;34078;-70
2022/01/05 03:17:39;;;;;;;;;;;;;;;13.91;53.75;97975.34;4473800;31;34610;-70
2022/01/05 03:20:06;;;;;;;;;;;;;;;13.81;54.07;97974.75;4472411;32;34373;-72
2022/01/05 03:22:34;;;;;;;;;;;;;;;13.54;54.72;97973.37;4475273;31;33254;-74
2022/01/05 03:25:01;;;;;;;;;;;;;;;12.98;56.51;97976.13;4472076;32;32779;-73
2022/01/05 03:27:29;;;;;;;;;;;;;;;13.68;54.36;97978.84;4467299;32;34076;-73
2022/01/05 03:29:56;;;;;;;;;;;;;;;13.91;53.83;97978.03;4474031;32;33769;-70
2022/01/05 03:32:26;;;;;;;;;;;;;;;13.83;53.49;97981.59;4476649;32;33690;-71
2022/01/05 03:34:54;;;;;;;;;;;;;;;14.00;53.22;97966.19;4473577;31;34348;-69
2022/01/05 03:37:21;;;;;;;;;;;;;;;13.99;53.13;97973.41;4470576;32;34432;-70
2022/01/05 03:39:49;;;;;;;;;;;;;;;14.20;52.20;97964.66;4475149;31;34494;-71
2022/01/05 03:42:16;;;;;;;;;;;;;;;14.33;51.86;97966.75;4476433;32;34275;-72
2022/01/05 03:44:43;;;;;;;;;;;;;;;14.40;51.77;97970.38;4471839;32;35100;-70
2022/01/05 03:47:11;;;;;;;;;;;;;;;14.54;51.38;97971.47;4466146;32;34160;-72
2022/01/05 03:49:38;;;;;;;;;;;;;;;14.31;51.86;97970.62;4475030;31;34324;-70
2022/01/05 03:52:05;;;;;;;;;;;;;;;13.73;53.56;97965.69;4469951;32;33481;-71
2022/01/05 03:54:33;;;;;;;;;;;;;;;13.63;53.85;97956.19;4474465;32;33895;-70
2022/01/05 03:57:00;;;;;;;;;;;;;;;13.86;53.23;97958.87;4476632;32;34317;-71
2022/01/05 03:59:27;;;;;;;;;;;;;;;13.88;52.98;97949.63;4468805;32;34108;-70
2022/01/05 04:01:55;;;;;;;;;;;;;;;13.50;54.04;97951.37;4464187;32;33652;-70
2022/01/05 04:04:22;;;;;;;;;;;;;;;13.89;52.86;97953.16;4465084;32;34154;-69
2022/01/05 04:06:50;;;;;;;;;;;;;;;14.20;52.07;97943.16;4472693;32;34100;-70
2022/01/05 04:09:17;;;;;;;;;;;;;;;13.98;52.54;97944.84;4471154;32;35353;-70
2022/01/05 04:11:44;;;;;;;;;;;;;;;14.25;51.75;97944.44;4473558;32;33656;-69
2022/01/05 04:14:12;;;;;;;;;;;;;;;14.32;51.47;97951.63;4471298;32;33999;-70
2022/01/05 04:16:40;;;;;;;;;;;;;;;14.17;51.99;97940.81;4472249;31;32904;-70
2022/01/05 04:19:07;;;;;;;;;;;;;;;14.30;51.55;97944.75;4469073;32;33976;-71
2022/01/05 04:21:34;;;;;;;;;;;;;;;14.20;51.95;97942.31;4472206;32;33744;-72
2022/01/05 04:24:02;;;;;;;;;;;;;;;14.32;51.29;97934.66;4472228;32;35162;-71
2022/01/05 04:26:29;;;;;;;;;;;;;;;14.19;51.74;97930.72;4472861;32;34442;-71
2022/01/05 04:28:57;;;;;;;;;;;;;;;14.48;51.01;97939.88;4465704;32;36074;-71
2022/01/05 04:31:24;;;;;;;;;;;;;;;14.59;50.54;97941.31;4476775;32;33382;-71
2022/01/05 04:33:52;;;;;;;;;;;;;;;14.54;50.72;97939.19;4470453;32;34330;-73
2022/01/05 04:36:39;;;;;;;;;;;;;;;14.62;50.39;97938.25;4472106;32;34301;-74
2022/01/05 04:39:06;;;;;;;;;;;;;;;14.49;50.86;97946.91;4472294;31;34362;-71
2022/01/05 04:41:33;;;;;;;;;;;;;;;14.65;50.21;97944.09;4470735;32;32402;-70
2022/01/05 04:44:01;;;;;;;;;;;;;;;14.44;50.70;97947.47;4472237;31;33922;-69
2022/01/05 04:46:28;;;;;;;;;;;;;;;14.73;50.14;97942.31;4464046;32;34260;-69
2022/01/05 04:48:55;;;;;;;;;;;;;;;14.39;50.63;97940.97;4471205;32;35225;-70
2022/01/05 04:51:23;;;;;;;;;;;;;;;13.99;51.89;97932.22;4470247;32;33597;-68
2022/01/05 04:53:51;;;;;;;;;;;;;;;14.29;51.24;97929.63;4473268;32;34441;-70
2022/01/05 04:56:18;;;;;;;;;;;;;;;14.30;51.20;97928.59;4467721;31;35050;-71
2022/01/05 04:58:45;;;;;;;;;;;;;;;13.94;52.25;97924.69;4472555;32;33057;-71
2022/01/05 05:01:13;;;;;;;;;;;;;;;13.71;52.97;97924.72;4467658;32;33275;-70
2022/01/05 05:03:41;;;;;;;;;;;;;;;13.89;52.53;97918.19;4472260;32;35186;-71
2022/01/05 05:06:08;;;;;;;;;;;;;;;12.91;55.36;97918.75;4471142;32;35287;-71
2022/01/05 05:08:36;;;;;;;;;;;;;;;12.64;56.43;97915.47;4466298;32;34276;-69
2022/01/05 05:11:03;;;;;;;;;;;;;;;13.61;53.40;97924.12;4463074;32;32114;-70
2022/01/05 05:13:30;;;;;;;;;;;;;;;13.63;53.34;97935.50;4468871;32;33940;-69
2022/01/05 05:15:58;;;;;;;;;;;;;;;13.34;54.20;97927.28;4470410;32;34333;-71
2022/01/05 05:18:29;;;;;;;;;;;;;;;12.80;55.48;97939.56;4470038;32;31852;-69
2022/01/05 05:20:56;;;;;;;;;;;;;;;13.44;53.77;97926.06;4473367;32;33082;-69
2022/01/05 05:23:24;;;;;;;;;;;;;;;13.84;52.69;97932.19;4468827;31;34173;-70
2022/01/05 05:25:51;;;;;;;;;;;;;;;13.90;52.43;97928.78;4472068;32;35055;-69
2022/01/05 05:28:18;;;;;;;;;;;;;;;14.03;52.00;97932.69;4476052;32;34596;-69
2022/01/05 05:30:46;;;;;;;;;;;;;;;14.05;51.98;97933.34;4473483;32;34812;-70
2022/01/05 05:33:14;;;;;;;;;;;;;;;14.22;51.70;97937.56;4466206;31;34165;-70
2022/01/05 05:35:42;;;;;;;;;;;;;;;13.99;52.38;97935.75;4473356;32;33889;-69
2022/01/05 05:38:11;;;;;;;;;;;;;;;13.80;52.83;97935.41;4469622;31;34338;-71
2022/01/05 05:40:39;;;;;;;;;;;;;;;14.25;51.21;97942.59;4466525;32;33602;-70
2022/01/05 05:43:06;;;;;;;;;;;;;;;14.43;50.75;97947.66;4466225;32;34143;-69
2022/01/05 05:45:33;;;;;;;;;;;;;;;14.42;50.84;97951.37;4470509;32;34077;-71
2022/01/05 05:48:01;;;;;;;;;;;;;;;14.47;50.76;97943.56;4471812;32;33060;-70
2022/01/05 05:50:29;;;;;;;;;;;;;;;14.54;50.47;97963.41;4472599;32;34552;-70
2022/01/05 05:52:57;;;;;;;;;;;;;;;14.43;50.64;97961.09;4474313;32;34240;-70
2022/01/05 05:55:24;;;;;;;;;;;;;;;14.50;50.63;97963.91;4468379;32;34508;-71
2022/01/05 05:57:51;;;;;;;;;;;;;;;14.07;51.90;97953.69;4472601;32;34414;-72
2022/01/05 06:00:19;;;;;;;;;;;;;;;14.09;51.98;97957.03;4473787;32;34728;-70
2022/01/05 06:02:46;;;;;;;;;;;;;;;14.24;51.52;97958.94;4475376;32;35514;-70
2022/01/05 06:05:14;;;;;;;;;;;;;;;14.40;51.01;97959.63;4464640;32;34795;-70
2022/01/05 06:07:42;;;;;;;;;;;;;;;13.20;54.10;97944.97;4467191;32;34537;-70
2022/01/05 06:10:09;;;;;;;;;;;;;;;13.53;53.55;97956.41;4476751;32;33660;-72
2022/01/05 06:12:37;;;;;;;;;;;;;;;12.66;55.83;97966.31;4475856;31;34406;-70
2022/01/05 06:15:04;;;;;;;;;;;;;;;13.17;54.72;97964.13;4477985;32;34015;-70
2022/01/05 06:17:32;;;;;;;;;;;;;;;12.92;55.34;97966.91;4477948;32;34304;-70
2022/01/05 06:19:59;;;;;;;;;;;;;;;12.78;56.23;97959.56;4476658;32;33599;-70
2022/01/05 06:22:26;;;;;;;;;;;;;;;12.97;55.65;97958.31;4465912;32;33100;-72
2022/01/05 06:24:54;;;;;;;;;;;;;;;13.28;54.62;97959.22;4466118;32;34127;-71
2022/01/05 06:27:21;;;;;;;;;;;;;;;12.70;56.44;97963.09;4471954;31;33840;-72
2022/01/05 06:29:48;;;;;;;;;;;;;;;12.47;57.32;97960.28;4473073;32;34414;-70
2022/01/05 06:32:16;;;;;;;;;;;;;;;12.00;58.86;97960.97;4477434;32;34175;-70
2022/01/05 06:34:43;;;;;;;;;;;;;;;11.87;59.79;97966.00;4472864;32;33821;-69
2022/01/05 06:37:11;;;;;;;;;;;;;;;11.97;59.50;97971.19;4467217;32;34407;-71
2022/01/05 06:39:38;;;;;;;;;;;;;;;11.99;59.75;97972.72;4477042;32;33400;-70
2022/01/05 06:42:05;;;;;;;;;;;;;;;12.11;59.45;97974.06;4472933;32;34288;-69
2022/01/05 06:44:33;;;;;;;;;;;;;;;12.17;59.30;97975.25;4478218;32;33064;-70
2022/01/05 06:47:02;;;;;;;;;;;;;;;12.48;58.26;97970.00;4470806;32;35490;-70
2022/01/05 06:49:29;;;;;;;;;;;;;;;12.16;59.09;97962.81;4475161;32;33562;-69
2022/01/05 06:51:57;;;;;;;;;;;;;;;11.79;60.49;97964.13;4475802;32;34350;-70
2022/01/05 06:54:24;;;;;;;;;;;;;;;11.95;59.87;97965.19;4473390;32;34119;-69
2022/01/05 06:56:52;;;;;;;;;;;;;;;11.60;61.03;97973.31;4477758;32;34546;-71
2022/01/05 06:59:25;;;;;;;;;;;;;;;11.63;61.15;97980.19;4475692;32;34518;-68
2022/01/05 07:01:52;;;;;;;;;;;;;;;11.75;60.67;97980.69;4474583;32;34417;-77
2022/01/05 07:04:19;;;;;;;;;;;;;;;11.80;60.49;97971.16;4472645;32;32947;-68
2022/01/05 07:06:47;;;;;;;;;;;;;;;11.82;60.50;97977.19;4473261;32;34456;-69
2022/01/05 07:09:14;;;;;;;;;;;;;;;11.87;60.73;97974.03;4470293;32;34545;-68
2022/01/05 07:11:43;;;;;;;;;;;;;;;11.45;61.67;97969.59;4473379;32;35121;-66
2022/01/05 07:14:10;;;;;;;;;;;;;;;11.42;62.02;97973.41;4476007;32;34179;-68
2022/01/05 07:16:37;;;;;;;;;;;;;;;11.94;60.48;97969.72;4473811;32;33637;-64
2022/01/05 07:19:05;;;;;;;;;;;;;;;12.15;59.64;97976.41;4474557;32;33509;-67
2022/01/05 07:21:33;;;;;;;;;;;;;;;12.29;59.41;97984.59;4480212;32;32830;-68
2022/01/05 07:24:01;;;;;;;;;;;;;;;11.99;60.14;97979.94;4470971;32;34570;-65
2022/01/05 07:26:28;;;;;;;;;;;;;;;11.83;60.78;97986.91;4476951;32;34201;-67
2022/01/05 07:28:55;;;;;;;;;;;;;;;11.42;62.04;97986.81;4467405;32;33500;-68
2022/01/05 07:31:23;;;;;;;;;;;;;;;11.37;62.73;97983.81;4467575;32;35311;-67
2022/01/05 07:33:50;;;;;;;;;;;;;;;11.56;61.74;97988.06;4476463;32;34406;-68
2022/01/05 07:36:18;;;;;;;;;;;;;;;11.34;62.78;97989.47;4478145;32;35138;-66
2022/01/05 07:38:45;;;;;;;;;;;;;;;10.96;64.48;97986.31;4475786;32;31849;-67
2022/01/05 07:41:13;;;;;;;;;;;;;;;10.92;64.54;97986.81;4473806;32;34202;-67
2022/01/05 07:43:40;;;;;;;;;;;;;;;10.76;65.28;97984.03;4474365;32;33773;-67
2022/01/05 07:46:07;;;;;;;;;;;;;;;11.31;63.61;97984.44;4471689;32;34778;-70
2022/01/05 07:48:35;;;;;;;;;;;;;;;11.35;63.57;97983.13;4472065;32;33066;-68
2022/01/05 07:51:03;;;;;;;;;;;;;;;11.47;63.23;97982.84;4474454;32;33770;-69
2022/01/05 07:53:30;;;;;;;;;;;;;;;11.95;61.65;97979.44;4467353;32;32858;-69
2022/01/05 07:55:57;;;;;;;;;;;;;;;11.81;61.85;97975.53;4473610;32;35378;-69
2022/01/05 07:58:26;;;;;;;;;;;;;;;12.01;61.22;97973.41;4467775;32;32188;-69
2022/01/05 08:00:53;;;;;;;;;;;;;;;11.73;62.54;97978.19;4467396;32;34470;-68
2022/01/05 08:03:21;;;;;;;;;;;;;;;11.71;62.77;97982.88;4474585;32;35144;-70
2022/01/05 08:06:08;;;;;;;;;;;;;;;11.87;62.26;97984.75;4474944;32;35122;-68
2022/01/05 08:08:36;;;;;;;;;;;;;;;12.05;61.87;97987.31;4480232;32;34685;-69
2022/01/05 08:11:03;;;;;;;;;;;;;;;11.57;63.10;97992.41;4475213;32;33948;-69
2022/01/05 08:13:30;;;;;;;;;;;;;;;11.66;63.01;98004.81;4473159;32;32812;-67
2022/01/05 08:15:58;;;;;;;;;;;;;;;11.89;62.24;98004.22;4475840;32;34353;-67
2022/01/05 08:18:25;;;;;;;;;;;;;;;12.16;61.65;98002.22;4480153;32;33561;-68
2022/01/05 08:20:52;;;;;;;;;;;;;;;11.99;62.26;98002.22;4479288;32;34327;-68
2022/01/05 08:23:20;;;;;;;;;;;;;;;12.02;62.33;98009.94;4476549;32;34762;-68
2022/01/05 08:25:48;;;;;;;;;;;;;;;11.68;63.14;98010.00;4472878;32;34443;-67
2022/01/05 08:28:15;;;;;;;;;;;;;;;12.24;61.57;98003.06;4475783;32;33585;-68
2022/01/05 08:30:46;;;;;;;;;;;;;;;12.48;60.85;97998.69;4471215;32;35418;-68
2022/01/05 08:33:14;;;;;;;;;;;;;;;12.25;61.41;98007.41;4474332;32;34395;-68
2022/01/05 08:35:41;;;;;;;;;;;;;;;12.26;61.71;98009.13;4476161;32;34526;-68
2022/01/05 08:38:08;;;;;;;;;;;;;;;12.05;62.19;98011.44;4472688;32;33422;-68
2022/01/05 08:40:36;;;;;;;;;;;;;;;12.09;62.16;98018.16;4474966;32;34379;-69
2022/01/05 08:43:04;;;;;;;;;;;;;;;12.63;60.63;98018.47;4475890;32;33835;-67
2022/01/05 08:45:32;;;;;;;;;;;;;;;12.83;59.91;98006.34;4476659;32;35297;-67
2022/01/05 08:47:59;;;;;;;;;;;;;;;12.71;60.38;98007.75;4476189;32;34737;-69
2022/01/05 08:50:28;;;;;;;;;;;;;;;13.30;58.81;98007.41;4478529;32;34103;-69
2022/01/05 08:52:57;;;;;;;;;;;;;;;13.45;58.25;98011.06;4475571;32;34475;-68
2022/01/05 08:55:25;;;;;;;;;;;;;;;13.23;58.49;98004.56;4470860;32;32896;-68
2022/01/05 08:57:53;;;;;;;;;;;;;;;13.40;58.13;98004.53;4474634;32;33799;-68
2022/01/05 09:00:20;;;;;;;;;;;;;;;13.31;58.55;98016.31;4472960;32;34195;-68
2022/01/05 09:02:47;;;;;;;;;;;;;;;14.05;56.48;98025.66;4472754;32;32856;-69
2022/01/05 09:05:18;;;;;;;;;;;;;;;14.16;55.95;98027.09;4475456;32;33557;-68
2022/01/05 09:07:45;;;;;;;;;;;;;;;14.55;54.87;98034.22;4464472;32;33137;-69
2022/01/05 09:10:12;;;;;;;;;;;;;;;14.67;54.55;98038.16;4473643;32;34055;-69
2022/01/05 09:12:40;;;;;;;;;;;;;;;14.24;55.32;98034.28;4468796;32;34080;-67
2022/01/05 09:15:07;;;;;;;;;;;;;;;14.97;53.48;98036.34;4476149;32;33939;-68
2022/01/05 09:17:35;;;;;;;;;;;;;;;15.57;51.94;98029.94;4473112;32;33546;-68
2022/01/05 09:20:03;;;;;;;;;;;;;;;15.86;51.21;98035.47;4472707;32;33346;-69
2022/01/05 09:22:31;;;;;;;;;;;;;;;16.01;50.50;98044.34;4471249;32;34560;-68
2022/01/05 09:24:58;;;;;;;;;;;;;;;16.04;50.18;98043.97;4472385;32;32983;-68
2022/01/05 09:27:25;;;;;;;;;;;;;;;16.13;49.88;98050.09;4472687;32;32162;-69
2022/01/05 09:29:53;;;;;;;;;;;;;;;16.04;50.32;98050.22;4475446;32;34382;-68
2022/01/05 09:32:20;;;;;;;;;;;;;;;15.72;50.61;98056.06;4472840;32;34646;-69
2022/01/05 09:34:48;;;;;;;;;;;;;;;16.37;48.56;98065.09;4474605;32;34131;-69
2022/01/05 09:37:28;;;;;;;;;;;;;;;16.04;48.92;98066.41;4469621;32;33251;-69
2022/01/05 09:42:42;;;;;;;;;;;;;;;15.78;49.07;98063.41;4471436;32;34195;-69
2022/01/05 09:45:15;;;;;;;;;;;;;;;16.12;48.20;98059.25;4473642;32;34825;-69
2022/01/05 09:48:02;;;;;;;;;;;;;;;15.91;48.87;98066.25;4474842;32;33713;-70
2022/01/05 09:50:29;;;;;;;;;;;;;;;15.83;48.63;98069.91;4472599;32;37186;-68
2022/01/05 09:52:56;;;;;;;;;;;;;;;16.14;48.21;98065.25;4465412;32;35485;-72
2022/01/05 09:55:24;;;;;;;;;;;;;;;16.42;48.20;98059.94;4475553;32;34283;-70
2022/01/05 09:57:51;;;;;;;;;;;;;;;16.48;47.69;98054.59;4469944;32;33369;-69
2022/01/05 10:00:19;;;;;;;;;;;;;;;16.56;47.13;98052.81;4467463;32;34107;-70
2022/01/05 10:02:49;;;;;;;;;;;;;;;16.61;46.78;98058.47;4469633;32;33880;-70
2022/01/05 10:05:17;;;;;;;;;;;;;;;16.45;47.63;98054.16;4472327;32;33449;-73
2022/01/05 10:07:44;;;;;;;;;;;;;;;16.81;46.54;98062.19;4475011;32;33382;-70
2022/01/05 10:10:12;;;;;;;;;;;;;;;16.98;46.13;98060.03;4467751;32;34087;-70
2022/01/05 10:12:40;;;;;;;;;;;;;;;17.09;45.67;98069.50;4473068;32;34274;-70
2022/01/05 10:15:12;;;;;;;;;;;;;;;16.41;47.42;98077.19;4475203;32;33679;-71
2022/01/05 10:17:41;;;;;;;;;;;;;;;17.14;45.65;98075.13;4472187;32;33469;-69
2022/01/05 10:20:09;;;;;;;;;;;;;;;16.98;45.96;98070.84;4476742;32;34845;-71
2022/01/05 10:22:40;;;;;;;;;;;;;;;17.09;45.72;98069.50;4477343;32;32798;-71
2022/01/05 10:25:09;;;;;;;;;;;;;;;17.29;45.23;98067.75;4476348;32;35162;-70
2022/01/05 10:27:36;;;;;;;;;;;;;;;16.87;46.22;98064.13;4473649;32;34484;-67
2022/01/05 10:30:05;;;;;;;;;;;;;;;16.54;46.97;98059.25;4475995;32;33970;-68
2022/01/05 10:32:33;;;;;;;;;;;;;;;16.63;46.98;98062.66;4475560;32;34569;-69
2022/01/05 10:35:02;;;;;;;;;;;;;;;16.00;48.69;98070.50;4477797;32;35206;-72
2022/01/05 10:37:29;;;;;;;;;;;;;;;16.60;46.95;98062.22;4477327;32;33524;-69
2022/01/05 10:40:08;;;;;;;;;;;;;;;15.91;48.73;98068.94;4467585;32;33934;-71
2022/01/05 10:42:36;;;;;;;;;;;;;;;15.50;49.73;98072.13;4468975;32;34342;-71
2022/01/05 10:45:05;;;;;;;;;;;;;;;16.02;48.36;98073.03;4477094;32;34265;-69
2022/01/05 10:47:33;;;;;;;;;;;;;;;16.24;47.36;98074.75;4472379;32;33497;-69
2022/01/05 10:50:01;;;;;;;;;;;;;;;15.85;48.44;98083.19;4474099;32;34115;-69
2022/01/05 10:52:31;;;;;;;;;;;;;;;16.00;48.24;98094.78;4478165;32;33405;-70
2022/01/05 10:55:11;;;;;;;;;;;;;;;16.09;48.32;98089.31;4472299;32;33450;-69
2022/01/05 10:57:39;;;;;;;;;;;;;;;15.14;51.28;98094.41;4474098;32;33393;-68
2022/01/05 11:00:07;;;;;;;;;;;;;;;15.53;50.23;98089.78;4469935;32;35028;-68
2022/01/05 11:02:35;;;;;;;;;;;;;;;14.90;52.11;98091.97;4475672;32;35403;-66
2022/01/05 11:05:02;;;;;;;;;;;;;;;14.79;52.19;98089.72;4475416;32;37172;-67
2022/01/05 11:07:31;;;;;;;;;;;;;;;14.46;53.17;98100.72;4470848;32;33417;-68
2022/01/05 11:10:01;;;;;;;;;;;;;;;13.85;54.74;98110.50;4478543;32;34396;-68
2022/01/05 11:12:32;;;;;;;;;;;;;;;14.30;54.01;98098.97;4477600;32;34168;-69
2022/01/05 11:15:18;;;;;;;;;;;;;;;14.00;54.58;98108.75;4469352;32;34337;-69
2022/01/05 11:18:04;;;;;;;;;;;;;;;13.87;54.86;98114.69;4473048;32;32181;-70
2022/01/05 11:20:31;;;;;;;;;;;;;;;13.14;56.54;98129.16;4468484;32;35143;-70
2022/01/05 11:22:58;;;;;;;;;;;;;;;13.14;56.38;98112.22;4467474;32;34093;-68
2022/01/05 11:25:26;;;;;;;;;;;;;;;12.42;58.60;98118.25;4468076;32;34186;-70
2022/01/05 11:27:53;;;;;;;;;;;;;;;12.42;58.47;98123.63;4473430;32;33797;-69
2022/01/05 11:30:21;;;;;;;;;;;;;;;12.41;58.34;98121.94;4470598;32;35672;-71
2022/01/05 11:32:48;;;;;;;;;;;;;;;12.21;58.75;98126.78;4468173;32;34581;-69
2022/01/05 11:35:15;;;;;;;;;;;;;;;12.10;59.02;98130.62;4470152;32;35972;-71
2022/01/05 11:37:43;;;;;;;;;;;;;;;11.56;60.78;98131.91;4474216;32;32330;-69
2022/01/05 11:40:11;;;;;;;;;;;;;;;12.18;58.86;98140.53;4468252;32;34135;-69
2022/01/05 11:42:38;;;;;;;;;;;;;;;12.09;58.62;98154.91;4471097;32;35325;-70
2022/01/05 11:45:07;;;;;;;;;;;;;;;12.25;57.99;98170.22;4473658;32;34245;-68
2022/01/05 11:47:35;;;;;;;;;;;;;;;11.86;58.77;98168.06;4466979;32;33359;-69
2022/01/05 11:50:14;;;;;;;;;;;;;;;11.89;58.88;98157.88;4471733;32;32845;-70
2022/01/05 11:52:52;;;;;;;;;;;;;;;12.04;59.58;98147.38;4463753;32;33748;-72
2022/01/05 11:55:20;;;;;;;;;;;;;;;12.16;59.75;98139.84;4470824;32;33748;-73
2022/01/05 11:58:06;;;;;;;;;;;;;;;11.82;60.46;98142.56;4468921;32;32995;-71
2022/01/05 12:00:33;;;;;;;;;;;;;;;12.22;59.87;98152.59;4471290;32;32552;-70
2022/01/05 12:03:01;;;;;;;;;;;;;;;12.00;60.16;98162.09;4465279;32;34569;-71
2022/01/05 12:05:47;;;;;;;;;;;;;;;12.15;59.58;98175.72;4469001;32;34442;-72
2022/01/05 12:08:33;;;;;;;;;;;;;;;11.86;60.03;98179.63;4469204;32;33742;-70
2022/01/05 12:11:01;;;;;;;;;;;;;;;12.35;58.07;98178.94;4471112;32;35280;-67
2022/01/05 12:13:35;;;;;;;;;;;;;;;12.36;58.52;98191.38;4478332;32;35371;-66
2022/01/05 12:16:04;;;;;;;;;;;;;;;11.84;59.75;98172.72;4478149;32;34243;-67
2022/01/05 12:18:35;;;;;;;;;;;;;;;12.16;58.29;98177.38;4466426;32;33758;-68
2022/01/05 12:21:03;;;;;;;;;;;;;;;11.89;59.77;98190.03;4470568;32;33790;-68
2022/01/05 12:23:31;;;;;;;;;;;;;;;12.24;58.96;98192.69;4466536;32;35508;-70
2022/01/05 12:26:05;;;;;;;;;;;;;;;11.81;60.06;98203.38;4466014;32;34569;-69
2022/01/05 12:28:33;;;;;;;;;;;;;;;11.77;59.92;98190.44;4468911;32;32526;-70
2022/01/05 12:31:01;;;;;;;;;;;;;;;11.86;59.58;98181.47;4474083;32;35270;-70
2022/01/05 12:33:41;;;;;;;;;;;;;;;11.67;60.81;98187.87;4474297;32;34160;-69
2022/01/05 12:36:09;;;;;;;;;;;;;;;12.41;58.54;98190.88;4471511;32;34316;-69
2022/01/05 12:38:41;;;;;;;;;;;;;;;12.34;59.03;98194.22;4471399;32;33674;-66
2022/01/05 12:41:27;;;;;;;;;;;;;;;12.30;59.45;98197.41;4470753;32;34401;-69
2022/01/05 12:43:56;;;;;;;;;;;;;;;12.80;57.25;98202.69;4466928;32;33171;-66
2022/01/05 12:46:34;;;;;;;;;;;;;;;12.82;57.30;98198.00;4467808;32;34973;-70
2022/01/05 12:49:04;;;;;;;;;;;;;;;12.20;58.79;98205.59;4469279;32;33589;-69
2022/01/05 12:51:33;;;;;;;;;;;;;;;12.75;57.63;98210.41;4468993;32;32776;-71
2022/01/05 12:54:01;;;;;;;;;;;;;;;13.15;56.51;98213.28;4470262;32;33913;-70
2022/01/05 12:56:49;;;;;;;;;;;;;;;12.81;57.37;98217.81;4467924;32;35144;-68
2022/01/05 12:59:21;;;;;;;;;;;;;;;12.90;57.61;98228.53;4472961;32;32399;-71